createdAt,value
2022-08-24T00:04:10.411Z,1.45
2022-08-24T00:09:36.199Z,0.98
2022-08-24T00:14:57.948Z,0.75
2022-08-24T00:20:19.656Z,0.70
2022-08-24T00:25:42.425Z,1.38
2022-08-24T00:31:05.361Z,1.90
2022-08-24T00:36:30.158Z,0.50
2022-08-24T00:41:52.590Z,0.68
2022-08-24T00:47:43.129Z,2.20
2022-08-24T00:53:20.244Z,0.60
2022-08-24T00:58:48.098Z,0.85
2022-08-24T01:04:29.121Z,0.38
2022-08-24T01:09:54.273Z,0.68
2022-08-24T01:20:39.959Z,0.63
2022-08-24T01:26:02.421Z,0.40
2022-08-24T01:31:25.534Z,0.30
2022-08-24T01:36:51.252Z,0.57
2022-08-24T01:42:14.580Z,0.50
2022-08-24T01:53:14.588Z,0.40
2022-08-24T01:58:36.444Z,0.40
2022-08-24T02:04:02.998Z,0.50
2022-08-24T02:09:25.673Z,2.17
2022-08-24T02:14:53.341Z,0.40
2022-08-24T02:20:16.209Z,0.47
2022-08-24T02:25:38.441Z,0.32
2022-08-24T02:31:01.064Z,0.68
2022-08-24T02:36:26.041Z,2.88
2022-08-24T02:41:49.401Z,0.68
2022-08-24T02:47:11.350Z,0.50
2022-08-24T02:52:33.168Z,0.57
2022-08-24T02:57:54.915Z,0.73
2022-08-24T03:03:16.638Z,0.95
2022-08-24T03:08:39.036Z,1.35
2022-08-24T03:14:01.824Z,1.33
2022-08-24T03:19:24.009Z,1.50
2022-08-24T03:24:45.715Z,1.00
2022-08-24T03:30:10.682Z,2.40
2022-08-24T03:35:34.248Z,4.07
2022-08-24T03:40:56.532Z,3.03
2022-08-24T03:46:21.856Z,2.40
2022-08-24T03:51:43.878Z,5.30
2022-08-24T03:57:05.737Z,8.20
2022-08-24T04:02:32.366Z,5.28
2022-08-24T04:07:54.706Z,4.68
2022-08-24T04:13:17.518Z,9.82
2022-08-24T04:18:40.626Z,3.70
2022-08-24T04:24:04.000Z,6.03
2022-08-24T04:29:25.734Z,6.82
2022-08-24T04:34:47.468Z,4.75
2022-08-24T04:40:09.751Z,5.28
2022-08-24T04:45:32.614Z,20.52
2022-08-24T04:50:54.365Z,14.23
2022-08-24T04:56:23.402Z,11.95
2022-08-24T05:01:45.561Z,4.75
2022-08-24T05:07:07.360Z,5.63
2022-08-24T05:12:29.193Z,8.50
2022-08-24T05:17:51.444Z,9.45
2022-08-24T05:23:14.026Z,5.55
2022-08-24T05:28:35.920Z,4.15
2022-08-24T05:33:59.656Z,1.40
2022-08-24T05:39:21.551Z,1.73
2022-08-24T05:44:43.326Z,3.13
2022-08-24T05:50:06.638Z,3.38
2022-08-24T05:55:30.680Z,2.50
2022-08-24T06:00:52.429Z,2.65
2022-08-24T06:06:15.951Z,8.00
2022-08-24T06:11:39.890Z,18.70
2022-08-24T06:17:04.225Z,14.70
2022-08-24T06:22:26.000Z,14.50
2022-08-24T06:27:48.092Z,11.60
2022-08-24T06:33:10.604Z,12.70
2022-08-24T06:38:32.513Z,15.57
2022-08-24T06:43:55.092Z,10.80
2022-08-24T06:49:16.789Z,9.88
2022-08-24T06:54:39.145Z,6.00
2022-08-24T07:00:00.888Z,7.63
2022-08-24T07:05:22.693Z,3.90
2022-08-24T07:10:46.069Z,6.45
2022-08-24T07:16:07.916Z,5.32
2022-08-24T07:21:30.676Z,5.72
2022-08-24T07:26:53.130Z,3.90
2022-08-24T07:32:14.829Z,4.10
2022-08-24T07:37:41.379Z,5.18
2022-08-24T07:43:03.780Z,5.32
2022-08-24T07:48:26.095Z,5.28
2022-08-24T07:53:53.832Z,4.55
2022-08-24T07:59:17.560Z,2.67
2022-08-24T08:04:40.141Z,2.75
2022-08-24T08:10:02.797Z,3.45
2022-08-24T08:15:26.118Z,3.13
2022-08-24T08:20:49.049Z,3.97
2022-08-24T08:26:20.510Z,2.08
2022-08-24T08:31:42.541Z,3.95
2022-08-24T08:37:04.532Z,5.03
2022-08-24T08:42:57.176Z,2.63
2022-08-24T08:48:47.642Z,2.20
2022-08-24T08:54:34.071Z,1.70
2022-08-24T08:59:58.550Z,3.35
2022-08-24T09:05:58.051Z,1.70
2022-08-24T09:11:57.173Z,3.17
2022-08-24T09:17:30.948Z,2.97
2022-08-24T09:23:11.593Z,1.73
2022-08-24T09:29:15.402Z,2.28
2022-08-24T09:34:50.922Z,4.70
2022-08-24T09:40:43.655Z,1.17
2022-08-24T09:46:40.371Z,2.85
2022-08-24T09:52:39.510Z,4.15
2022-08-24T09:58:18.830Z,1.05
2022-08-24T10:04:06.137Z,1.77
2022-08-24T10:10:09.903Z,1.83
2022-08-24T10:15:46.346Z,1.42
2022-08-24T10:21:29.567Z,1.73
2022-08-24T10:26:57.187Z,1.35
2022-08-24T10:32:57.603Z,1.00
2022-08-24T10:39:02.557Z,1.30
2022-08-24T10:44:50.121Z,2.05
2022-08-24T10:50:31.278Z,1.52
2022-08-24T10:56:39.665Z,2.22
2022-08-24T11:07:35.610Z,0.70
2022-08-24T11:13:18.934Z,1.10
2022-08-24T11:18:53.749Z,1.45
2022-08-24T11:24:18.232Z,1.90
2022-08-24T11:29:51.981Z,1.43
2022-08-24T11:35:32.035Z,2.25
2022-08-24T11:41:19.578Z,1.67
2022-08-24T11:46:53.708Z,1.67
2022-08-24T11:52:53.819Z,6.15
2022-08-24T11:58:46.893Z,3.33
2022-08-24T12:04:33.037Z,1.25
2022-08-24T12:10:32.726Z,10.50
2022-08-24T12:16:12.773Z,11.27
2022-08-24T12:21:39.301Z,10.07
2022-08-24T12:27:13.413Z,11.27
2022-08-24T12:32:47.990Z,13.82
2022-08-24T12:38:19.486Z,11.00
2022-08-24T12:44:05.508Z,7.18
2022-08-24T12:49:36.566Z,6.18
2022-08-24T12:55:31.179Z,7.15
2022-08-24T13:00:53.101Z,7.43
2022-08-24T13:06:25.941Z,11.02
2022-08-24T13:11:48.657Z,6.70
2022-08-24T13:17:13.374Z,7.47
2022-08-24T13:22:46.862Z,9.50
2022-08-24T13:28:20.827Z,5.97
2022-08-24T13:33:57.841Z,4.32
2022-08-24T13:39:38.166Z,3.17
2022-08-24T13:45:18.085Z,6.00
2022-08-24T13:51:05.674Z,5.05
2022-08-24T13:56:47.920Z,7.68
2022-08-24T14:02:16.118Z,5.55
2022-08-24T14:07:54.295Z,5.53
2022-08-24T14:13:45.208Z,3.35
2022-08-24T14:19:21.103Z,10.18
2022-08-24T14:24:46.441Z,8.00
2022-08-24T14:30:20.302Z,10.48
2022-08-24T14:35:41.995Z,4.95
2022-08-24T14:41:22.605Z,2.38
2022-08-24T14:47:07.223Z,5.28
2022-08-24T14:52:50.756Z,9.48
2022-08-24T14:58:41.704Z,4.55
2022-08-24T15:04:36.124Z,9.27
2022-08-24T15:10:01.463Z,11.27
2022-08-24T15:15:34.126Z,8.57
2022-08-24T15:21:07.958Z,11.23
2022-08-24T15:27:00.937Z,3.50
2022-08-24T15:32:44.387Z,6.60
2022-08-24T15:38:20.299Z,15.75
2022-08-24T15:44:00.131Z,6.85
2022-08-24T15:49:29.701Z,7.05
2022-08-24T15:55:01.455Z,6.30
2022-08-24T16:00:54.633Z,3.13
2022-08-24T16:06:18.455Z,8.63
2022-08-24T16:12:02.374Z,3.95
2022-08-24T16:17:30.683Z,5.10
2022-08-24T16:23:00.735Z,3.67
2022-08-24T16:28:22.645Z,11.27
2022-08-24T16:33:47.338Z,11.48
2022-08-24T16:39:11.873Z,11.48
2022-08-24T16:44:37.038Z,8.97
2022-08-24T16:55:21.282Z,9.02
2022-08-24T17:00:45.934Z,4.18
2022-08-24T17:06:07.865Z,7.15
2022-08-24T17:11:29.939Z,12.05
2022-08-24T17:16:51.807Z,4.45
2022-08-24T17:22:16.399Z,4.05
2022-08-24T17:27:38.457Z,5.90
2022-08-24T17:33:00.208Z,3.20
2022-08-24T17:38:22.271Z,4.75
2022-08-24T17:43:44.155Z,6.32
2022-08-24T17:49:07.467Z,4.80
2022-08-24T17:54:29.275Z,3.50
2022-08-24T17:59:50.987Z,5.78
2022-08-24T18:05:14.576Z,4.20
2022-08-24T18:10:36.530Z,1.95
2022-08-24T18:15:58.672Z,1.85
2022-08-24T18:21:21.405Z,2.13
2022-08-24T18:26:47.954Z,1.92
2022-08-24T18:32:11.768Z,2.35
2022-08-24T18:37:33.530Z,1.27
2022-08-24T18:42:56.773Z,3.10
2022-08-24T18:48:21.761Z,1.05
2022-08-24T18:53:43.554Z,3.30
2022-08-24T18:59:05.992Z,2.17
2022-08-24T19:04:32.194Z,1.58
2022-08-24T19:09:55.535Z,1.67
2022-08-24T19:15:32.211Z,1.02
2022-08-24T19:21:00.180Z,0.70
2022-08-24T19:26:21.908Z,1.42
2022-08-24T19:31:43.640Z,0.95
2022-08-24T19:37:05.631Z,2.08
2022-08-24T19:42:27.542Z,2.22
2022-08-24T19:47:49.263Z,1.10
2022-08-24T19:53:11.283Z,3.30
2022-08-24T19:58:38.950Z,1.45
2022-08-24T20:04:09.474Z,4.32
2022-08-24T20:09:33.284Z,1.65
2022-08-24T20:14:54.948Z,1.25
2022-08-24T20:20:19.841Z,3.03
2022-08-24T20:25:41.900Z,5.22
2022-08-24T20:31:03.681Z,3.13
2022-08-24T20:36:37.433Z,3.53
2022-08-24T20:41:59.151Z,3.42
2022-08-24T20:47:22.083Z,7.65
2022-08-24T20:52:43.825Z,5.80
2022-08-24T20:58:05.633Z,2.15
2022-08-24T21:03:27.471Z,2.50
2022-08-24T21:08:53.549Z,3.85
2022-08-24T21:14:15.298Z,1.10
2022-08-24T21:19:37.000Z,2.72
2022-08-24T21:24:58.698Z,1.65
2022-08-24T21:30:22.327Z,2.70
2022-08-24T21:35:44.476Z,2.40
2022-08-24T21:41:07.074Z,1.98
2022-08-24T21:46:32.730Z,3.80
2022-08-24T21:51:54.557Z,6.20
2022-08-24T21:57:16.361Z,1.95
2022-08-24T22:02:39.141Z,2.85
2022-08-24T22:08:01.018Z,2.75
2022-08-24T22:13:22.781Z,4.63
2022-08-24T22:18:45.146Z,1.90
2022-08-24T22:24:07.297Z,2.83
2022-08-24T22:29:29.138Z,1.67
2022-08-24T22:34:51.714Z,3.50
2022-08-24T22:40:13.601Z,1.58
2022-08-24T22:45:35.474Z,1.60
2022-08-24T22:50:57.192Z,1.52
2022-08-24T22:56:22.248Z,2.65
2022-08-24T23:01:46.004Z,0.98
2022-08-24T23:07:08.261Z,2.35
2022-08-24T23:12:30.002Z,1.35
2022-08-24T23:17:51.681Z,0.82
2022-08-24T23:23:13.403Z,0.75
2022-08-24T23:28:35.110Z,2.78
2022-08-24T23:33:58.096Z,1.58
2022-08-24T23:39:21.310Z,1.90
2022-08-24T23:44:43.018Z,1.40
2022-08-24T23:50:06.749Z,1.02
2022-08-24T23:55:32.437Z,0.80
